LKPC weather

Panensky Tynec Airport
Panensky Tynec, Ústí nad Labem Region, Czechia

Public forecast

Using degrees Celsius for public forecast. Weather courtesy of forecast.io.

METAR (pilot weather report)

Closest report is Václav Havel Airport Prague, 17.6 nm (32.5 km) SE. Retrieved 2019/08/26 06:30 UTC (24 minutes ago):

LKPR 260630Z VRB02KT CAVOK 21/17 Q1021 NOSIG

TAF (pilot weather forecast)

Closest forecast is Václav Havel Airport Prague, 17.6 nm (32.5 km) SE. Retrieved 2019/08/26 06:21 UTC (33 minutes ago):

TAF LKPR 260500Z 2606/2712 11006KT CAVOK TEMPO 2610/2622 8000 SHRA SCT045TCU PROB30 TEMPO 2612/2621 4000 TSRA SCT035CB TEMPO 2702/2706 VRB02KT 3000 BR SCT006 PROB30 TEMPO 2702/2705 0800 FG BKN002 TEMPO 2710/2712 8000 SHRA SCT045TCU